Time;durP1;ratioP1;P1;durP2;ratioP2;P2;SDS_P1;SDS_P2;PMS_P1;PMS_P2;Temp;Humidity;BMP_temperature;BMP_pressure;BME280_temperature;BME280_humidity;BME280_pressure;Samples;Min_cycle;Max_cycle;Signal;HPM_P1;HPM_P2
2021/06/08 00:01:50;;;;;;;43.40;39.00;;;17.50;99.90;;;;;;4954779;29;20177;-67
2021/06/08 00:04:16;;;;;;;42.17;37.97;;;17.50;99.90;;;;;;4954811;29;20212;-65
2021/06/08 00:06:42;;;;;;;37.93;34.23;;;17.60;99.90;;;;;;4954757;29;20211;-66
2021/06/08 00:09:07;;;;;;;41.87;37.70;;;17.60;99.90;;;;;;4954150;29;20875;-67
2021/06/08 00:11:33;;;;;;;42.27;37.87;;;17.60;99.90;;;;;;4954774;29;20594;-67
2021/06/08 00:13:58;;;;;;;39.97;35.83;;;17.60;99.90;;;;;;4954907;29;20244;-67
2021/06/08 00:16:24;;;;;;;39.57;34.60;;;17.70;99.90;;;;;;4954464;29;20189;-66
2021/06/08 00:18:49;;;;;;;41.20;37.17;;;17.70;99.90;;;;;;4953783;29;20177;-67
2021/06/08 00:21:15;;;;;;;40.90;36.80;;;17.70;99.90;;;;;;4954563;29;20169;-67
2021/06/08 00:23:41;;;;;;;41.10;36.50;;;17.60;99.90;;;;;;4954876;29;20180;-67
2021/06/08 00:26:06;;;;;;;41.53;37.10;;;17.60;99.90;;;;;;4954640;29;20223;-66
2021/06/08 00:28:32;;;;;;;41.67;37.33;;;17.70;99.90;;;;;;4953691;29;20577;-67
2021/06/08 00:30:57;;;;;;;41.60;37.20;;;17.60;99.90;;;;;;4953628;28;20496;-67
2021/06/08 00:33:23;;;;;;;40.97;37.07;;;17.60;99.90;;;;;;4954503;29;20196;-66
2021/06/08 00:35:48;;;;;;;39.00;35.20;;;17.60;99.90;;;;;;4954251;29;20658;-66
2021/06/08 00:38:14;;;;;;;40.57;36.53;;;17.60;99.90;;;;;;4953326;29;20262;-67
2021/06/08 00:40:44;;;;;;;39.67;35.67;;;17.60;99.90;;;;;;4954176;29;20177;-67
2021/06/08 00:43:09;;;;;;;41.63;37.67;;;17.60;99.90;;;;;;4954034;29;20176;-67
2021/06/08 00:45:35;;;;;;;40.80;36.80;;;17.60;99.90;;;;;;4953936;28;20420;-66
2021/06/08 00:48:01;;;;;;;40.90;36.40;;;17.70;99.90;;;;;;4953287;29;20772;-67
2021/06/08 00:50:27;;;;;;;41.03;36.70;;;17.70;99.90;;;;;;4954087;29;20639;-66
2021/06/08 00:52:53;;;;;;;40.63;36.73;;;17.70;99.90;;;;;;4953963;29;20215;-67
2021/06/08 00:55:21;;;;;;;38.50;34.87;;;17.70;99.90;;;;;;4953978;29;20551;-67
2021/06/08 00:57:50;;;;;;;40.83;36.50;;;17.70;99.90;;;;;;4952991;29;20201;-67
2021/06/08 01:00:16;;;;;;;39.90;35.97;;;17.70;99.90;;;;;;4953805;29;20949;-67
2021/06/08 01:02:42;;;;;;;37.93;33.90;;;17.60;99.90;;;;;;4953762;29;20432;-67
2021/06/08 01:05:08;;;;;;;38.17;34.50;;;17.50;99.90;;;;;;4953972;29;20437;-67
2021/06/08 01:07:35;;;;;;;41.17;35.90;;;17.40;99.90;;;;;;4953299;29;20200;-67
2021/06/08 01:10:03;;;;;;;38.40;34.67;;;17.40;99.90;;;;;;4954207;29;20423;-67
2021/06/08 01:12:29;;;;;;;38.87;35.20;;;17.40;99.90;;;;;;4954451;29;20496;-67
2021/06/08 01:14:54;;;;;;;34.07;30.83;;;17.40;99.90;;;;;;4953728;29;20436;-67
2021/06/08 01:17:20;;;;;;;34.60;31.20;;;17.50;99.90;;;;;;4952745;29;20217;-65
2021/06/08 01:19:47;;;;;;;34.90;31.40;;;17.50;99.90;;;;;;4952930;29;20169;-67
2021/06/08 01:22:14;;;;;;;33.27;30.17;;;17.50;99.90;;;;;;4953482;29;20177;-68
2021/06/08 01:24:40;;;;;;;32.87;29.57;;;17.50;99.90;;;;;;4953430;29;20456;-66
2021/06/08 01:27:07;;;;;;;32.27;28.97;;;17.50;99.90;;;;;;4953288;29;20444;-65
2021/06/08 01:29:35;;;;;;;34.00;30.50;;;17.50;99.90;;;;;;4951233;29;20425;-67
2021/06/08 01:32:05;;;;;;;34.37;31.17;;;17.40;99.90;;;;;;4953209;28;20437;-67
2021/06/08 01:34:32;;;;;;;36.33;32.93;;;17.40;99.90;;;;;;4953188;29;20416;-67
2021/06/08 01:36:58;;;;;;;34.17;30.87;;;17.40;99.90;;;;;;4952994;29;20864;-67
2021/06/08 01:39:24;;;;;;;32.07;28.87;;;17.40;99.90;;;;;;4952741;29;20428;-67
2021/06/08 01:41:50;;;;;;;30.37;27.53;;;17.40;99.90;;;;;;4952657;28;20421;-67
2021/06/08 01:44:16;;;;;;;32.20;29.30;;;17.40;99.90;;;;;;4952415;29;20180;-67
2021/06/08 01:46:42;;;;;;;31.53;28.57;;;17.40;99.90;;;;;;4952941;29;20466;-66
2021/06/08 01:49:07;;;;;;;31.27;28.00;;;17.40;99.90;;;;;;4952258;29;20922;-65
2021/06/08 01:51:54;;;;;;;31.57;28.57;;;17.40;99.90;;;;;;4952971;29;20189;-66
2021/06/08 01:54:29;;;;;;;29.70;26.80;;;17.50;99.90;;;;;;4952905;28;20184;-67
2021/06/08 01:57:13;;;;;;;34.67;31.33;;;17.40;99.90;;;;;;4952742;29;20466;-67
2021/06/08 01:59:50;;;;;;;36.73;33.33;;;17.40;99.90;;;;;;4952434;29;20416;-67
2021/06/08 02:02:25;;;;;;;33.23;30.10;;;17.50;99.90;;;;;;4952896;29;20424;-66
2021/06/08 02:05:04;;;;;;;29.87;26.93;;;17.40;99.90;;;;;;4952685;29;20424;-67
2021/06/08 02:07:43;;;;;;;30.33;27.43;;;17.40;99.90;;;;;;4952091;29;20526;-67
2021/06/08 02:10:27;;;;;;;32.73;29.50;;;17.50;99.90;;;;;;4952790;29;20423;-66
2021/06/08 02:13:10;;;;;;;31.80;28.80;;;17.50;99.90;;;;;;4952783;28;20412;-66
2021/06/08 02:15:40;;;;;;;34.37;31.00;;;17.40;99.90;;;;;;4952753;29;20507;-68
2021/06/08 02:18:10;;;;;;;31.27;28.17;;;17.40;99.90;;;;;;4951848;29;20514;-67
2021/06/08 02:20:37;;;;;;;30.47;27.73;;;17.50;99.90;;;;;;4952632;28;20694;-67
2021/06/08 02:23:05;;;;;;;30.77;27.90;;;17.60;99.90;;;;;;4952647;29;20842;-66
2021/06/08 02:25:32;;;;;;;31.40;28.40;;;17.60;99.90;;;;;;4952373;29;20472;-67
2021/06/08 02:28:02;;;;;;;32.17;29.27;;;17.60;99.90;;;;;;4951808;29;20440;-67
2021/06/08 02:30:30;;;;;;;32.10;29.17;;;17.60;99.90;;;;;;4952472;29;20417;-68
2021/06/08 02:32:57;;;;;;;32.63;29.40;;;17.50;99.90;;;;;;4952644;28;20432;-66
2021/06/08 02:35:24;;;;;;;33.70;30.50;;;17.60;99.90;;;;;;4952358;29;20918;-67
2021/06/08 02:37:51;;;;;;;34.00;30.70;;;17.60;99.90;;;;;;4951532;29;20475;-68
2021/06/08 02:40:18;;;;;;;37.00;33.40;;;17.50;99.90;;;;;;4952355;29;20503;-65
2021/06/08 02:42:44;;;;;;;36.10;32.73;;;17.50;99.90;;;;;;4967353;28;20526;-67
2021/06/08 02:45:10;;;;;;;35.27;31.77;;;17.40;99.90;;;;;;4952356;29;20993;-67
2021/06/08 02:47:36;;;;;;;34.23;30.83;;;17.40;99.90;;;;;;4951717;29;20480;-67
2021/06/08 02:50:04;;;;;;;33.23;29.93;;;17.50;99.90;;;;;;4952281;29;20836;-67
2021/06/08 02:52:30;;;;;;;32.10;29.10;;;17.50;99.90;;;;;;4952246;29;20424;-66
2021/06/08 02:54:58;;;;;;;35.70;32.30;;;17.50;99.90;;;;;;4954603;28;20804;-67
2021/06/08 02:57:25;;;;;;;32.83;29.53;;;17.50;99.90;;;;;;4955195;29;20464;-67
2021/06/08 02:59:53;;;;;;;35.60;32.00;;;17.50;99.90;;;;;;4956074;29;20416;-68
2021/06/08 03:02:20;;;;;;;31.67;28.60;;;17.50;99.90;;;;;;4956074;29;20420;-67
2021/06/08 03:04:51;;;;;;;34.67;31.23;;;17.60;99.90;;;;;;4955864;29;20452;-67
2021/06/08 03:07:19;;;;;;;36.00;32.50;;;17.50;99.90;;;;;;4955188;29;20544;-67
2021/06/08 03:09:56;;;;;;;39.70;35.70;;;17.60;99.90;;;;;;4955952;29;20864;-67
2021/06/08 03:12:27;;;;;;;39.83;35.83;;;17.50;99.90;;;;;;4955801;29;20416;-67
2021/06/08 03:14:53;;;;;;;43.50;37.40;;;17.50;99.90;;;;;;4955693;28;20428;-67
2021/06/08 03:17:24;;;;;;;41.17;36.90;;;17.40;99.90;;;;;;4954865;29;20466;-66
2021/06/08 03:19:51;;;;;;;43.10;38.43;;;17.40;99.90;;;;;;4955645;29;20404;-66
2021/06/08 03:22:19;;;;;;;40.33;36.13;;;17.40;99.90;;;;;;4955608;29;20412;-67
2021/06/08 03:24:51;;;;;;;44.23;38.80;;;17.40;99.90;;;;;;4963649;28;20490;-67
2021/06/08 03:27:18;;;;;;;42.50;38.20;;;17.40;99.90;;;;;;4965684;28;20447;-66
2021/06/08 03:29:44;;;;;;;47.77;42.57;;;17.50;99.90;;;;;;4956968;28;20440;-66
2021/06/08 03:32:10;;;;;;;48.30;41.27;;;17.50;99.90;;;;;;4960380;28;20864;-67
2021/06/08 03:34:38;;;;;;;43.93;39.10;;;17.50;99.90;;;;;;4974724;28;20796;-66
2021/06/08 03:37:05;;;;;;;45.83;41.30;;;17.50;99.90;;;;;;4964778;28;20471;-66
2021/06/08 03:39:32;;;;;;;48.10;42.67;;;17.50;99.90;;;;;;4960330;28;20476;-67
2021/06/08 03:41:58;;;;;;;45.13;38.60;;;17.40;99.90;;;;;;4956194;28;20416;-67
2021/06/08 03:44:24;;;;;;;45.87;41.03;;;17.40;99.90;;;;;;4974572;28;20424;-67
2021/06/08 03:46:50;;;;;;;46.53;41.53;;;17.40;99.90;;;;;;4965744;28;20463;-68
2021/06/08 03:49:18;;;;;;;48.87;40.27;;;17.50;99.90;;;;;;4964030;28;21148;-67
2021/06/08 03:51:45;;;;;;;43.20;38.57;;;17.40;99.90;;;;;;4964976;28;20438;-67
2021/06/08 03:54:11;;;;;;;45.43;40.63;;;17.40;99.90;;;;;;4956146;28;20438;-67
2021/06/08 03:56:42;;;;;;;42.83;38.50;;;17.40;99.90;;;;;;4970280;28;20458;-66
2021/06/08 03:59:10;;;;;;;44.80;40.50;;;17.40;99.90;;;;;;4959902;28;20527;-67
2021/06/08 04:01:37;;;;;;;44.43;39.83;;;17.40;99.90;;;;;;4966554;28;20467;-67
2021/06/08 04:04:05;;;;;;;43.73;39.23;;;17.40;99.90;;;;;;4966123;28;20435;-67
2021/06/08 04:06:31;;;;;;;44.43;39.87;;;17.40;99.90;;;;;;4956601;28;21038;-66
2021/06/08 04:08:56;;;;;;;43.80;39.30;;;17.40;99.90;;;;;;4953108;28;20428;-66
2021/06/08 04:11:22;;;;;;;43.87;39.07;;;17.40;99.90;;;;;;4954586;28;20484;-66
2021/06/08 04:13:54;;;;;;;42.10;37.57;;;17.50;99.90;;;;;;4953938;29;20217;-66
2021/06/08 04:16:19;;;;;;;42.30;37.70;;;17.50;99.90;;;;;;4954710;29;20173;-66
2021/06/08 04:18:45;;;;;;;43.17;38.97;;;17.50;99.90;;;;;;4953743;29;20464;-66
2021/06/08 04:21:11;;;;;;;40.87;36.57;;;17.50;99.90;;;;;;4954469;29;20247;-66
2021/06/08 04:23:36;;;;;;;40.27;36.17;;;17.60;99.90;;;;;;4954394;29;20429;-67
2021/06/08 04:26:03;;;;;;;41.50;37.07;;;17.50;99.90;;;;;;4954551;29;20573;-66
2021/06/08 04:28:29;;;;;;;39.43;35.53;;;17.60;99.90;;;;;;4953449;29;20579;-66
2021/06/08 04:30:56;;;;;;;39.80;35.87;;;17.50;99.90;;;;;;4954239;29;20536;-67
2021/06/08 04:33:26;;;;;;;39.90;35.90;;;17.60;99.90;;;;;;4954339;29;20185;-66
2021/06/08 04:35:52;;;;;;;41.97;37.70;;;17.60;99.90;;;;;;4954159;29;20516;-66
2021/06/08 04:38:19;;;;;;;39.97;36.07;;;17.60;99.90;;;;;;4953268;29;20607;-66
2021/06/08 04:40:47;;;;;;;42.33;38.00;;;17.60;99.90;;;;;;4954629;29;20176;-66
2021/06/08 04:43:13;;;;;;;40.10;35.90;;;17.60;99.90;;;;;;4953985;29;20433;-66
2021/06/08 04:45:39;;;;;;;43.53;39.03;;;17.60;99.90;;;;;;4954019;29;20919;-66
2021/06/08 04:48:05;;;;;;;41.90;37.60;;;17.60;99.90;;;;;;4953315;28;20448;-66
2021/06/08 04:50:32;;;;;;;39.43;35.47;;;17.70;99.90;;;;;;4954162;29;20596;-66
2021/06/08 04:53:02;;;;;;;40.40;36.40;;;17.70;99.90;;;;;;4968720;28;20460;-66
2021/06/08 04:55:28;;;;;;;41.93;37.37;;;17.70;99.90;;;;;;4953828;29;20460;-66
2021/06/08 04:57:53;;;;;;;40.90;36.53;;;17.80;99.90;;;;;;4953145;29;20522;-66
2021/06/08 05:00:32;;;;;;;40.33;36.27;;;17.80;99.90;;;;;;4953993;29;20425;-66
2021/06/08 05:03:10;;;;;;;43.77;38.90;;;17.80;99.90;;;;;;4953812;28;20432;-66
2021/06/08 05:05:40;;;;;;;42.90;38.43;;;17.70;99.90;;;;;;4934588;29;20429;-66
2021/06/08 05:08:08;;;;;;;43.63;39.00;;;17.70;99.90;;;;;;4933752;29;20450;-67
2021/06/08 05:10:38;;;;;;;42.17;36.87;;;17.70;99.90;;;;;;4934585;29;20523;-66
2021/06/08 05:13:08;;;;;;;43.10;38.67;;;17.80;99.90;;;;;;4934397;29;20512;-66
2021/06/08 05:15:34;;;;;;;41.23;37.10;;;17.80;99.90;;;;;;4934343;29;20429;-66
2021/06/08 05:18:01;;;;;;;38.97;35.23;;;17.80;99.90;;;;;;4933322;29;20520;-68
2021/06/08 05:20:26;;;;;;;41.67;37.37;;;17.80;99.90;;;;;;4934204;29;20425;-68
2021/06/08 05:22:55;;;;;;;40.17;36.07;;;17.90;99.90;;;;;;4934320;29;20421;-68
2021/06/08 05:25:21;;;;;;;40.40;36.33;;;17.90;99.90;;;;;;4934291;29;20182;-68
2021/06/08 05:27:47;;;;;;;41.07;37.07;;;17.90;99.90;;;;;;4933381;29;20453;-68
2021/06/08 05:30:13;;;;;;;39.67;35.37;;;18.10;99.90;;;;;;4934100;29;20436;-68
2021/06/08 05:32:39;;;;;;;41.40;37.40;;;18.10;99.90;;;;;;4934083;29;20512;-68
2021/06/08 05:35:06;;;;;;;39.13;35.07;;;18.10;99.90;;;;;;4933897;29;20505;-68
2021/06/08 05:37:38;;;;;;;41.30;37.20;;;18.10;99.90;;;;;;4933657;29;20556;-68
2021/06/08 05:40:05;;;;;;;40.53;36.63;;;18.20;99.90;;;;;;4961091;28;20518;-68
2021/06/08 05:42:30;;;;;;;36.30;32.70;;;18.20;99.90;;;;;;4972873;28;20843;-68
2021/06/08 05:44:56;;;;;;;39.57;35.77;;;18.30;99.90;;;;;;4972320;28;20424;-68
2021/06/08 05:47:22;;;;;;;35.73;32.13;;;18.30;99.90;;;;;;4971564;28;20200;-69
2021/06/08 05:49:48;;;;;;;38.47;34.57;;;18.30;99.90;;;;;;4972061;28;20231;-68
2021/06/08 05:52:14;;;;;;;39.33;35.23;;;18.30;99.90;;;;;;4972310;28;20820;-67
2021/06/08 05:54:40;;;;;;;39.73;35.90;;;18.30;99.90;;;;;;4972227;28;20697;-67
2021/06/08 05:57:09;;;;;;;40.93;36.53;;;18.30;99.90;;;;;;4972132;28;20498;-67
2021/06/08 05:59:37;;;;;;;39.03;35.43;;;18.20;99.90;;;;;;4971642;28;20424;-68
2021/06/08 06:02:03;;;;;;;37.93;34.30;;;18.30;99.90;;;;;;4972038;28;20562;-69
2021/06/08 06:04:29;;;;;;;38.03;34.43;;;18.30;99.90;;;;;;4961712;28;20519;-68
2021/06/08 06:06:55;;;;;;;41.17;37.10;;;18.40;99.90;;;;;;4958127;28;20600;-68
2021/06/08 06:09:24;;;;;;;38.17;34.47;;;18.40;99.90;;;;;;4951927;29;20192;-69
2021/06/08 06:11:53;;;;;;;40.60;36.57;;;18.40;99.90;;;;;;4950516;28;20424;-70
2021/06/08 06:14:23;;;;;;;40.13;36.03;;;18.40;99.90;;;;;;4951583;28;20436;-69
2021/06/08 06:16:52;;;;;;;40.83;36.80;;;18.40;99.90;;;;;;4952422;29;20475;-68
2021/06/08 06:19:18;;;;;;;39.20;34.97;;;18.30;99.90;;;;;;4950951;28;20421;-69
2021/06/08 06:21:45;;;;;;;37.20;33.80;;;18.40;99.90;;;;;;4948923;29;20431;-69
2021/06/08 06:24:12;;;;;;;39.80;35.80;;;18.40;99.90;;;;;;4952398;29;20432;-68
2021/06/08 06:26:40;;;;;;;39.80;35.60;;;18.40;99.90;;;;;;4951119;28;20749;-68
2021/06/08 06:29:08;;;;;;;40.13;36.17;;;18.30;99.90;;;;;;4947424;28;20428;-69
2021/06/08 06:31:34;;;;;;;39.30;35.10;;;18.40;99.90;;;;;;4937940;28;20547;-71
2021/06/08 06:34:00;;;;;;;37.37;33.50;;;18.50;99.90;;;;;;4925625;28;20435;-71
2021/06/08 06:36:32;;;;;;;40.83;36.87;;;18.50;99.90;;;;;;4950493;29;20211;-71
2021/06/08 06:39:08;;;;;;;39.57;35.37;;;18.60;99.90;;;;;;4952194;28;20185;-71
2021/06/08 06:41:40;;;;;;;39.13;35.07;;;18.60;99.90;;;;;;4944358;28;20846;-71
2021/06/08 06:44:06;;;;;;;39.70;35.73;;;18.50;99.90;;;;;;4952962;29;20424;-71
2021/06/08 06:46:33;;;;;;;46.70;42.00;;;18.60;99.90;;;;;;4952584;29;20467;-72
2021/06/08 06:48:58;;;;;;;40.60;36.60;;;18.50;99.90;;;;;;4952253;29;20794;-72
2021/06/08 06:51:24;;;;;;;37.77;33.87;;;18.50;99.90;;;;;;4949633;29;20428;-72
2021/06/08 06:53:51;;;;;;;41.70;37.60;;;18.50;99.90;;;;;;4952169;29;20173;-71
2021/06/08 06:56:20;;;;;;;39.47;35.47;;;18.50;99.90;;;;;;4952638;29;20551;-72
2021/06/08 06:58:46;;;;;;;37.60;33.80;;;18.60;99.90;;;;;;4952572;29;20468;-72
2021/06/08 07:01:12;;;;;;;40.53;36.83;;;18.60;99.90;;;;;;4946578;28;20439;-71
2021/06/08 07:03:38;;;;;;;42.97;38.57;;;18.50;99.90;;;;;;4949848;29;20177;-71
2021/06/08 07:06:04;;;;;;;40.73;36.63;;;18.50;99.90;;;;;;4952396;29;20439;-72
2021/06/08 07:08:32;;;;;;;40.87;36.67;;;18.50;99.90;;;;;;4952483;29;20452;-71
2021/06/08 07:10:58;;;;;;;39.80;35.80;;;18.50;99.90;;;;;;4950985;29;20505;-71
2021/06/08 07:13:25;;;;;;;41.90;37.33;;;18.60;99.90;;;;;;4951836;29;20436;-70
2021/06/08 07:15:52;;;;;;;39.10;35.20;;;18.60;99.90;;;;;;4950707;28;20436;-72
2021/06/08 07:18:18;;;;;;;41.37;36.53;;;18.60;99.90;;;;;;4950571;29;20468;-72
2021/06/08 07:20:45;;;;;;;41.23;37.30;;;18.60;99.90;;;;;;4952693;29;20427;-72
2021/06/08 07:23:16;;;;;;;38.70;35.20;;;18.70;99.90;;;;;;4964190;28;20440;-71
2021/06/08 07:25:42;;;;;;;40.20;36.20;;;18.80;99.90;;;;;;4952588;29;20760;-71
2021/06/08 07:28:10;;;;;;;38.73;34.93;;;18.80;99.90;;;;;;4951995;29;20455;-71
2021/06/08 07:30:37;;;;;;;40.40;36.33;;;19.00;99.90;;;;;;4952244;29;20460;-71
2021/06/08 07:33:08;;;;;;;37.47;33.90;;;19.10;99.90;;;;;;4949062;29;20439;-70
2021/06/08 07:35:54;;;;;;;36.00;32.53;;;19.10;99.90;;;;;;4950055;28;20575;-70
2021/06/08 07:39:00;;;;;;;37.57;33.83;;;19.20;99.90;;;;;;4951861;29;20562;-70
2021/06/08 07:41:53;;;;;;;34.90;31.53;;;19.30;99.90;;;;;;4948056;28;20436;-70
2021/06/08 07:44:28;;;;;;;35.63;32.20;;;19.40;99.90;;;;;;4952272;28;20431;-71
2021/06/08 07:46:56;;;;;;;38.87;35.27;;;19.50;99.90;;;;;;4950210;28;20460;-71
2021/06/08 07:49:22;;;;;;;39.33;35.53;;;19.50;99.90;;;;;;4951754;29;20502;-70
2021/06/08 07:51:49;;;;;;;40.23;35.87;;;19.50;99.90;;;;;;4948843;29;21009;-70
2021/06/08 07:54:15;;;;;;;40.70;36.63;;;19.40;99.90;;;;;;4952432;29;20436;-70
2021/06/08 07:56:41;;;;;;;37.90;34.13;;;19.40;99.90;;;;;;4951700;29;20456;-70
2021/06/08 07:59:09;;;;;;;38.13;34.13;;;19.30;99.90;;;;;;4951405;29;20177;-70
2021/06/08 08:01:34;;;;;;;38.90;35.20;;;19.30;99.90;;;;;;4947797;28;20207;-70
2021/06/08 08:04:07;;;;;;;38.90;35.13;;;19.30;99.90;;;;;;4951196;28;20452;-70
2021/06/08 08:06:33;;;;;;;39.57;35.67;;;19.20;99.90;;;;;;4951871;29;20195;-68
2021/06/08 08:08:58;;;;;;;38.83;34.73;;;19.30;99.90;;;;;;4951422;29;20424;-69
2021/06/08 08:11:24;;;;;;;37.80;34.27;;;19.20;99.90;;;;;;4945345;28;20188;-70
2021/06/08 08:13:52;;;;;;;42.83;38.47;;;19.20;99.90;;;;;;4951671;29;20236;-70
2021/06/08 08:16:18;;;;;;;40.87;36.70;;;19.30;99.90;;;;;;4949188;28;20456;-70
2021/06/08 08:18:45;;;;;;;38.07;34.40;;;19.30;99.90;;;;;;4951048;29;20986;-71
2021/06/08 08:21:16;;;;;;;38.03;34.40;;;19.50;99.90;;;;;;4948549;29;20433;-70
2021/06/08 08:23:43;;;;;;;40.43;36.33;;;19.60;99.90;;;;;;4950932;29;20424;-70
2021/06/08 08:26:09;;;;;;;38.07;34.57;;;19.60;99.90;;;;;;4950949;29;20424;-70
2021/06/08 08:28:37;;;;;;;36.97;33.10;;;19.60;99.90;;;;;;4951134;29;20429;-70
2021/06/08 08:31:12;;;;;;;38.80;35.33;;;19.40;99.90;;;;;;4948872;29;20496;-70
2021/06/08 08:33:37;;;;;;;36.57;32.87;;;19.30;99.90;;;;;;4950442;29;20499;-70
2021/06/08 08:36:03;;;;;;;37.53;33.83;;;19.30;99.90;;;;;;4951415;29;20433;-71
2021/06/08 08:38:29;;;;;;;37.33;33.77;;;19.30;99.90;;;;;;4950514;28;20220;-70
2021/06/08 08:40:57;;;;;;;38.80;35.00;;;19.30;99.90;;;;;;4949945;29;20420;-71
2021/06/08 08:43:23;;;;;;;38.70;34.90;;;19.20;99.90;;;;;;4949502;29;20429;-70
2021/06/08 08:45:49;;;;;;;39.07;35.30;;;19.30;99.90;;;;;;4951389;29;20531;-70
2021/06/08 08:48:15;;;;;;;40.97;37.27;;;19.20;99.90;;;;;;4950171;28;20189;-70
2021/06/08 08:50:40;;;;;;;37.50;34.00;;;19.20;99.90;;;;;;4950923;29;20531;-70
2021/06/08 08:53:07;;;;;;;41.60;37.30;;;19.20;99.90;;;;;;4946872;28;20196;-70
2021/06/08 08:55:35;;;;;;;42.00;37.70;;;19.30;99.90;;;;;;4950737;29;20177;-70
2021/06/08 08:58:03;;;;;;;37.63;34.20;;;19.30;99.90;;;;;;4950763;29;20897;-70
2021/06/08 09:00:30;;;;;;;38.60;35.00;;;19.40;99.90;;;;;;4950534;29;20425;-70
2021/06/08 09:03:00;;;;;;;38.90;35.40;;;19.70;99.90;;;;;;4947179;29;20507;-71
2021/06/08 09:05:26;;;;;;;38.23;34.80;;;19.90;99.90;;;;;;4950454;29;20440;-70
2021/06/08 09:07:53;;;;;;;37.83;34.27;;;20.00;99.90;;;;;;4950578;29;20452;-70
2021/06/08 09:10:21;;;;;;;40.03;36.13;;;20.10;99.90;;;;;;4948530;28;20921;-71
2021/06/08 09:12:47;;;;;;;38.50;34.90;;;20.00;99.90;;;;;;4944404;28;20464;-69
2021/06/08 09:15:13;;;;;;;37.43;33.87;;;19.90;99.90;;;;;;4950728;29;20452;-70
2021/06/08 09:17:40;;;;;;;38.10;34.40;;;20.00;99.90;;;;;;4949969;29;20514;-70
2021/06/08 09:20:11;;;;;;;39.10;35.37;;;20.10;99.90;;;;;;4950247;29;20232;-70
2021/06/08 09:22:51;;;;;;;37.67;34.17;;;20.20;99.90;;;;;;4947962;29;20532;-70
2021/06/08 09:28:26;;;;;;;40.93;37.13;;;20.70;99.90;;;;;;4950129;29;20444;-71
2021/06/08 09:31:04;;;;;;;37.00;33.70;;;20.80;99.90;;;;;;4952454;28;20474;-69
2021/06/08 09:33:31;;;;;;;40.17;36.33;;;20.90;99.90;;;;;;4949377;29;20436;-71
2021/06/08 09:36:01;;;;;;;41.03;37.20;;;20.90;99.90;;;;;;4950372;29;20424;-71
2021/06/08 09:38:44;;;;;;;39.50;35.97;;;20.80;99.90;;;;;;4950072;29;20503;-71
2021/06/08 09:41:11;;;;;;;38.17;34.67;;;20.60;99.90;;;;;;4948294;29;21180;-70
2021/06/08 09:43:48;;;;;;;38.87;35.37;;;20.70;99.90;;;;;;4949884;29;20823;-71
2021/06/08 09:46:14;;;;;;;38.40;34.67;;;20.70;99.90;;;;;;4948389;29;20472;-70
2021/06/08 09:49:06;;;;;;;39.37;35.57;;;20.80;99.90;;;;;;4949768;29;20451;-71
2021/06/08 09:51:53;;;;;;;38.40;35.00;;;21.10;99.90;;;;;;4944582;29;20776;-71
2021/06/08 09:54:33;;;;;;;35.90;32.60;;;21.50;99.90;;;;;;4950047;29;21175;-68
2021/06/08 09:57:21;;;;;;;35.80;32.63;;;21.70;99.90;;;;;;4949999;29;20909;-68
2021/06/08 09:59:59;;;;;;;35.73;32.43;;;21.90;99.90;;;;;;4949572;29;20883;-70
2021/06/08 10:02:26;;;;;;;38.43;34.67;;;22.10;99.90;;;;;;4947249;29;21021;-71
2021/06/08 10:04:53;;;;;;;37.37;34.07;;;22.10;99.90;;;;;;4948745;28;21251;-70
2021/06/08 10:07:28;;;;;;;39.07;35.30;;;22.20;99.90;;;;;;4949525;29;20448;-70
2021/06/08 10:10:07;;;;;;;36.13;33.03;;;22.40;99.90;;;;;;4949508;29;20435;-71
2021/06/08 10:12:34;;;;;;;38.37;35.17;;;22.60;99.90;;;;;;4947421;29;20428;-70
2021/06/08 10:15:10;;;;;;;38.03;34.73;;;22.80;99.90;;;;;;4949477;29;20818;-72
2021/06/08 10:17:38;;;;;;;37.83;34.63;;;22.70;99.90;;;;;;4949114;29;20467;-70
2021/06/08 10:20:21;;;;;;;33.90;31.00;;;22.40;99.90;;;;;;4949594;29;20428;-70
2021/06/08 10:22:47;;;;;;;36.13;32.73;;;22.30;99.90;;;;;;4947137;29;20914;-69
2021/06/08 10:25:13;;;;;;;33.50;30.40;;;22.50;99.90;;;;;;4949517;29;20435;-70
2021/06/08 10:27:39;;;;;;;36.90;33.73;;;22.60;99.90;;;;;;4947518;28;20456;-69
2021/06/08 10:30:06;;;;;;;36.83;33.67;;;22.70;99.90;;;;;;4949630;29;20420;-72
2021/06/08 10:32:33;;;;;;;36.23;33.13;;;22.60;99.90;;;;;;4945767;28;20433;-70
2021/06/08 10:34:59;;;;;;;35.40;32.27;;;22.70;99.90;;;;;;4949368;28;20793;-69
2021/06/08 10:37:25;;;;;;;33.77;31.07;;;22.60;99.90;;;;;;4949173;28;20472;-69
2021/06/08 10:39:54;;;;;;;35.47;32.33;;;22.60;99.90;;;;;;4949916;29;20422;-70
2021/06/08 10:42:19;;;;;;;35.63;32.73;;;22.70;99.90;;;;;;4947607;28;20557;-69
2021/06/08 10:44:45;;;;;;;31.97;29.47;;;22.90;99.90;;;;;;4949035;29;20435;-68
2021/06/08 10:47:43;;;;;;;33.17;30.47;;;23.20;99.90;;;;;;4948584;29;20204;-67
2021/06/08 10:50:22;;;;;;;32.80;30.10;;;23.50;99.90;;;;;;4948235;29;20216;-69
2021/06/08 10:52:48;;;;;;;33.40;30.40;;;23.80;99.90;;;;;;4944892;28;20499;-69
2021/06/08 10:55:15;;;;;;;34.73;31.53;;;24.20;99.90;;;;;;4947627;29;20437;-68
2021/06/08 10:57:48;;;;;;;32.97;30.23;;;24.60;99.90;;;;;;4946530;28;20474;-67
2021/06/08 11:00:26;;;;;;;32.50;29.80;;;24.90;99.90;;;;;;4948991;29;20480;-66
2021/06/08 11:02:56;;;;;;;31.00;28.37;;;24.50;99.90;;;;;;4943637;29;20443;-66
2021/06/08 11:05:46;;;;;;;32.23;29.13;;;24.30;99.90;;;;;;4949243;29;20827;-66
2021/06/08 11:08:12;;;;;;;32.80;30.20;;;23.90;99.90;;;;;;4949079;28;20440;-67
2021/06/08 11:10:39;;;;;;;32.47;29.97;;;23.60;99.90;;;;;;4949208;29;20428;-67
2021/06/08 11:13:12;;;;;;;34.90;31.90;;;23.50;99.90;;;;;;4943800;28;20611;-66
2021/06/08 11:15:46;;;;;;;32.17;29.43;;;23.90;99.90;;;;;;4951272;28;20431;-66
2021/06/08 11:18:18;;;;;;;31.93;29.43;;;24.00;99.90;;;;;;4952116;29;20464;-66
2021/06/08 11:20:47;;;;;;;33.70;30.90;;;23.90;99.90;;;;;;4952387;29;20467;-67
2021/06/08 11:23:42;;;;;;;35.13;32.33;;;24.10;99.90;;;;;;4950236;29;20448;-67
2021/06/08 11:26:11;;;;;;;32.03;29.53;;;23.80;99.90;;;;;;4952922;29;20428;-66
2021/06/08 11:28:50;;;;;;;33.60;30.70;;;23.70;99.90;;;;;;4952398;29;20515;-67
2021/06/08 11:31:23;;;;;;;32.43;29.73;;;23.90;99.90;;;;;;4950287;29;20514;-66
2021/06/08 11:33:59;;;;;;;34.50;31.63;;;24.00;99.90;;;;;;4950675;28;20464;-67
2021/06/08 11:36:29;;;;;;;33.90;31.27;;;24.40;99.90;;;;;;4952152;28;20436;-67
2021/06/08 11:39:25;;;;;;;31.63;29.00;;;24.50;99.90;;;;;;4952327;29;20471;-66
2021/06/08 11:42:02;;;;;;;30.57;28.07;;;24.40;99.90;;;;;;4946779;28;20446;-66
2021/06/08 11:44:28;;;;;;;32.07;29.53;;;24.40;99.90;;;;;;4951988;29;20516;-65
2021/06/08 11:46:59;;;;;;;33.20;30.30;;;24.10;99.90;;;;;;4950685;28;20535;-66
2021/06/08 11:49:28;;;;;;;34.07;31.37;;;24.00;99.90;;;;;;4951516;29;20432;-65
2021/06/08 11:51:59;;;;;;;33.30;30.57;;;24.00;99.90;;;;;;4946910;28;20487;-65
2021/06/08 11:54:31;;;;;;;32.60;29.80;;;24.10;99.90;;;;;;4951396;29;20456;-65
2021/06/08 11:57:00;;;;;;;31.70;29.20;;;24.30;99.90;;;;;;4951762;29;20443;-66
2021/06/08 11:59:27;;;;;;;30.43;28.03;;;24.70;99.90;;;;;;4951791;29;20452;-66
2021/06/08 12:02:06;;;;;;;33.83;30.80;;;25.20;99.90;;;;;;4949934;29;20439;-65
2021/06/08 12:05:11;;;;;;;31.77;29.27;;;25.10;99.90;;;;;;4951218;29;20535;-67
2021/06/08 12:07:44;;;;;;;30.40;27.80;;;25.40;99.90;;;;;;4948481;28;20452;-66
2021/06/08 12:10:12;;;;;;;32.60;29.90;;;25.60;99.90;;;;;;4952084;29;20512;-67
2021/06/08 12:12:49;;;;;;;29.03;26.73;;;25.70;99.90;;;;;;4949147;29;20436;-67
2021/06/08 12:15:22;;;;;;;30.80;28.40;;;26.30;99.90;;;;;;4950160;29;20579;-66
2021/06/08 12:18:18;;;;;;;30.27;27.63;;;27.10;99.90;;;;;;4950108;29;21040;-66
2021/06/08 12:20:46;;;;;;;28.93;26.70;;;28.10;99.90;;;;;;4951401;29;20871;-67
2021/06/08 12:23:27;;;;;;;30.50;28.20;;;28.50;99.90;;;;;;4948802;29;20438;-67
2021/06/08 12:25:52;;;;;;;29.30;27.07;;;27.90;99.90;;;;;;4951644;28;20780;-65
2021/06/08 12:28:18;;;;;;;29.50;27.27;;;27.50;99.90;;;;;;4950057;29;20503;-67
2021/06/08 12:30:43;;;;;;;30.10;27.63;;;26.90;99.90;;;;;;4951847;29;20192;-66
2021/06/08 12:33:09;;;;;;;26.40;24.47;;;26.70;99.90;;;;;;4950217;29;20188;-66
2021/06/08 12:35:40;;;;;;;26.70;24.70;;;26.80;99.90;;;;;;4951229;29;20189;-66
2021/06/08 12:38:20;;;;;;;27.70;25.60;;;27.40;99.90;;;;;;4950956;29;20760;-67
2021/06/08 12:41:08;;;;;;;25.97;24.17;;;29.20;99.90;;;;;;4951255;29;20424;-66
2021/06/08 12:43:50;;;;;;;22.97;21.37;;;30.50;99.90;;;;;;4950817;29;20428;-66